createdAt,value
2018-07-12T00:01:59.189Z,101888.37
2018-07-12T00:04:26.552Z,101888.51
2018-07-12T00:06:53.961Z,101880.70
2018-07-12T00:09:21.366Z,101877.81
2018-07-12T00:14:22.274Z,101875.50
2018-07-12T00:16:49.682Z,101875.53
2018-07-12T00:19:17.016Z,101875.90
2018-07-12T00:21:44.404Z,101884.10
2018-07-12T00:24:12.113Z,101880.56
2018-07-12T00:26:39.506Z,101880.53
2018-07-12T00:29:07.897Z,101877.02
2018-07-12T00:31:35.254Z,101871.20
2018-07-12T00:34:03.428Z,101869.88
2018-07-12T00:36:30.812Z,101869.84
2018-07-12T00:38:58.239Z,101866.23
2018-07-12T00:41:25.618Z,101861.93
2018-07-12T00:43:53.014Z,101861.28
2018-07-12T00:46:20.529Z,101862.99
2018-07-12T00:48:47.893Z,101858.17
2018-07-12T00:51:15.283Z,101859.84
2018-07-12T00:53:42.702Z,101857.09
2018-07-12T00:56:10.128Z,101857.81
2018-07-12T00:58:37.503Z,101857.30
2018-07-12T01:01:04.905Z,101858.45
2018-07-12T01:03:32.289Z,101864.59
2018-07-12T01:05:59.684Z,101866.56
2018-07-12T01:08:27.009Z,101860.87
2018-07-12T01:10:54.381Z,101862.64
2018-07-12T01:13:21.715Z,101862.20
2018-07-12T01:15:49.372Z,101853.58
2018-07-12T01:18:16.783Z,101861.94
2018-07-12T01:20:44.232Z,101861.77
2018-07-12T01:23:11.648Z,101860.97
2018-07-12T01:25:39.141Z,101864.83
2018-07-12T01:28:06.548Z,101865.36
2018-07-12T01:30:33.976Z,101858.01
2018-07-12T01:33:01.420Z,101864.41
2018-07-12T01:35:28.782Z,101861.33
2018-07-12T01:37:56.168Z,101868.80
2018-07-12T01:40:23.803Z,101869.84
2018-07-12T01:42:51.205Z,101865.94
2018-07-12T01:45:18.560Z,101870.13
2018-07-12T01:47:45.970Z,101863.99
2018-07-12T01:50:13.357Z,101865.80
2018-07-12T01:52:40.724Z,101862.88
2018-07-12T01:55:08.128Z,101857.03
2018-07-12T01:57:35.590Z,101856.61
2018-07-12T02:00:02.951Z,101855.83
2018-07-12T02:02:30.364Z,101848.03
2018-07-12T02:04:58.082Z,101854.83
2018-07-12T02:07:25.499Z,101847.74
2018-07-12T02:09:52.883Z,101851.16
2018-07-12T02:12:20.345Z,101844.41
2018-07-12T02:14:47.754Z,101851.59
2018-07-12T02:17:15.204Z,101851.03
2018-07-12T02:19:42.609Z,101846.09
2018-07-12T02:22:10.812Z,101855.45
2018-07-12T02:24:38.230Z,101843.88
2018-07-12T02:27:05.736Z,101844.21
2018-07-12T02:29:33.140Z,101845.73
2018-07-12T02:32:00.549Z,101849.16
2018-07-12T02:34:28.104Z,101847.97
2018-07-12T02:36:55.496Z,101846.49
2018-07-12T02:39:22.869Z,101845.64
2018-07-12T02:41:50.251Z,101839.50
2018-07-12T02:44:17.599Z,101841.38
2018-07-12T02:46:44.980Z,101842.71
2018-07-12T02:49:12.365Z,101841.90
2018-07-12T02:51:39.866Z,101831.53
2018-07-12T02:54:07.195Z,101829.13
2018-07-12T02:56:34.588Z,101832.26
2018-07-12T02:59:02.014Z,101831.68
2018-07-12T03:01:30.221Z,101826.02
2018-07-12T03:03:57.666Z,101823.30
2018-07-12T03:06:25.059Z,101821.80
2018-07-12T03:08:52.491Z,101815.42
2018-07-12T03:11:19.873Z,101821.49
2018-07-12T03:13:47.269Z,101824.56
2018-07-12T03:16:14.653Z,101827.84
2018-07-12T03:18:42.019Z,101818.32
2018-07-12T03:21:09.538Z,101816.58
2018-07-12T03:23:36.899Z,101816.51
2018-07-12T03:26:04.271Z,101824.36
2018-07-12T03:28:31.681Z,101817.28
2018-07-12T03:30:59.237Z,101806.39
2018-07-12T03:33:26.646Z,101812.60
2018-07-12T03:35:54.078Z,101807.06
2018-07-12T03:38:21.508Z,101807.65
2018-07-12T03:40:48.914Z,101807.67
2018-07-12T03:43:16.308Z,101808.59
2018-07-12T03:45:43.680Z,101810.88
2018-07-12T03:48:11.099Z,101802.91
2018-07-12T03:50:38.575Z,101794.41
2018-07-12T03:53:05.995Z,101793.48
2018-07-12T03:55:33.350Z,101793.39
2018-07-12T03:58:00.895Z,101798.73
2018-07-12T04:00:28.356Z,101793.70
2018-07-12T04:02:55.722Z,101793.37
2018-07-12T04:05:23.153Z,101791.66
2018-07-12T04:07:50.577Z,101794.62
2018-07-12T04:10:18.032Z,101794.22
2018-07-12T04:12:45.399Z,101794.03
2018-07-12T04:15:12.761Z,101784.64
2018-07-12T04:17:40.174Z,101783.81
2018-07-12T04:20:07.655Z,101785.92
2018-07-12T04:22:36.213Z,101788.95
2018-07-12T04:25:03.567Z,101788.10
2018-07-12T04:27:30.985Z,101782.05
2018-07-12T04:29:59.680Z,101780.59
2018-07-12T04:32:27.136Z,101778.94
2018-07-12T04:34:54.655Z,101780.98
2018-07-12T04:37:21.996Z,101783.14
2018-07-12T04:39:49.358Z,101785.58
2018-07-12T04:42:16.698Z,101778.73
2018-07-12T04:44:44.055Z,101776.42
2018-07-12T04:47:11.508Z,101785.02
2018-07-12T04:49:38.901Z,101779.41
2018-07-12T04:52:06.298Z,101779.33
2018-07-12T04:54:33.742Z,101780.88
2018-07-12T04:57:01.216Z,101779.99
2018-07-12T04:59:28.577Z,101779.80
2018-07-12T05:01:55.919Z,101775.74
2018-07-12T05:04:23.358Z,101778.78
2018-07-12T05:06:50.770Z,101776.53
2018-07-12T05:09:18.164Z,101769.34
2018-07-12T05:11:45.626Z,101776.03
2018-07-12T05:14:13.083Z,101774.12
2018-07-12T05:16:40.554Z,101770.17
2018-07-12T05:19:07.979Z,101770.63
2018-07-12T05:21:35.440Z,101768.38
2018-07-12T05:24:02.882Z,101772.73
2018-07-12T05:26:30.382Z,101767.47
2018-07-12T05:28:57.776Z,101773.91
2018-07-12T05:31:25.172Z,101621.50
2018-07-12T05:33:52.519Z,101769.16
2018-07-12T05:36:28.690Z,101765.02
2018-07-12T05:38:57.509Z,101769.44
2018-07-12T05:41:26.183Z,101761.05
2018-07-12T05:43:54.777Z,101764.72
2018-07-12T05:46:23.413Z,101759.50
2018-07-12T05:48:52.105Z,101755.83
2018-07-12T05:51:20.839Z,101757.47
2018-07-12T05:53:49.551Z,101763.34
2018-07-12T05:56:18.126Z,101758.47
2018-07-12T05:58:46.788Z,101750.70
2018-07-12T06:01:26.432Z,101753.91
2018-07-12T06:03:55.157Z,101750.73
2018-07-12T06:06:23.886Z,101760.66
2018-07-12T06:08:52.601Z,101754.08
2018-07-12T06:11:21.364Z,101747.46
2018-07-12T06:13:50.248Z,101752.56
2018-07-12T06:16:18.862Z,101753.62
2018-07-12T06:18:47.520Z,101756.36
2018-07-12T06:21:16.204Z,101756.57
2018-07-12T06:23:45.022Z,101751.86
2018-07-12T06:26:13.754Z,101751.66
2018-07-12T06:28:42.467Z,101744.78
2018-07-12T06:31:11.154Z,101748.59
2018-07-12T06:33:39.845Z,101745.06
2018-07-12T06:36:08.608Z,101746.34
2018-07-12T06:38:37.268Z,101749.80
2018-07-12T06:41:05.948Z,101738.04
2018-07-12T06:43:34.677Z,101741.66
2018-07-12T06:46:03.377Z,101737.36
2018-07-12T06:48:32.113Z,101735.59
2018-07-12T06:51:01.017Z,101737.31
2018-07-12T06:53:29.727Z,101737.91
2018-07-12T06:55:58.406Z,101732.91
2018-07-12T06:58:27.317Z,101730.58
2018-07-12T07:00:55.893Z,101733.65
2018-07-12T07:03:24.508Z,101728.73
2018-07-12T07:05:53.181Z,101726.25
2018-07-12T07:08:21.883Z,101727.25
2018-07-12T07:10:50.521Z,101723.69
2018-07-12T07:13:19.137Z,101726.91
2018-07-12T07:15:47.976Z,101725.87
2018-07-12T07:18:16.582Z,101727.03
2018-07-12T07:20:45.358Z,101720.46
2018-07-12T07:23:14.006Z,101727.67
2018-07-12T07:25:42.762Z,101724.31
2018-07-12T07:28:11.418Z,101727.50
2018-07-12T07:30:40.025Z,101728.87
2018-07-12T07:33:08.951Z,101729.52
2018-07-12T07:35:37.638Z,101731.86
2018-07-12T07:38:06.618Z,101724.73
2018-07-12T07:40:35.453Z,101724.58
2018-07-12T07:43:04.586Z,101731.47
2018-07-12T07:45:33.260Z,101730.42
2018-07-12T07:48:01.956Z,101728.02
2018-07-12T07:50:30.672Z,101726.30
2018-07-12T07:52:59.395Z,101722.58
2018-07-12T07:55:28.182Z,101720.34
2018-07-12T07:57:56.900Z,101725.45
2018-07-12T08:00:25.470Z,101722.07
2018-07-12T08:02:54.236Z,101721.39
2018-07-12T08:05:22.919Z,101723.52
2018-07-12T08:07:51.641Z,101718.77
2018-07-12T08:10:20.289Z,101721.55
2018-07-12T08:12:49.026Z,101720.53
2018-07-12T08:15:17.826Z,101714.27
2018-07-12T08:17:46.560Z,101716.46
2018-07-12T08:20:15.168Z,101713.88
2018-07-12T08:22:43.812Z,101717.50
2018-07-12T08:25:12.512Z,101710.00
2018-07-12T08:27:52.247Z,101713.77
2018-07-12T08:30:20.928Z,101712.69
2018-07-12T08:32:49.743Z,101712.98
2018-07-12T08:35:18.718Z,101709.59
2018-07-12T08:37:47.301Z,101706.65
2018-07-12T08:40:16.135Z,101709.49
2018-07-12T08:42:44.892Z,101702.14
2018-07-12T08:45:13.449Z,101707.81
2018-07-12T08:47:42.191Z,101705.20
2018-07-12T08:50:11.030Z,101700.58
2018-07-12T08:52:39.725Z,101692.86
2018-07-12T08:55:08.502Z,101703.05
2018-07-12T08:57:37.171Z,101693.84
2018-07-12T09:00:06.259Z,101692.05
2018-07-12T09:02:35.061Z,101698.67
2018-07-12T09:05:03.956Z,101699.65
2018-07-12T09:07:32.606Z,101699.36
2018-07-12T09:10:01.273Z,101701.40
2018-07-12T09:12:29.888Z,101692.94
2018-07-12T09:14:58.585Z,101695.48
2018-07-12T09:17:27.186Z,101688.80
2018-07-12T09:19:55.768Z,101694.33
2018-07-12T09:22:24.459Z,101691.44
2018-07-12T09:24:53.101Z,101685.50
2018-07-12T09:27:21.904Z,101684.92
2018-07-12T09:29:50.632Z,101683.12
2018-07-12T09:32:19.473Z,101688.89
2018-07-12T09:34:48.244Z,101684.31
2018-07-12T09:37:16.798Z,101682.56
2018-07-12T09:39:45.664Z,101688.48
2018-07-12T09:42:14.348Z,101690.02
2018-07-12T09:44:43.063Z,101692.61
2018-07-12T09:47:11.746Z,101680.61
2018-07-12T09:49:40.564Z,101682.52
2018-07-12T09:52:14.521Z,101684.51
2018-07-12T09:54:43.351Z,101691.17
2018-07-12T09:57:23.061Z,101689.23
2018-07-12T09:59:51.707Z,101685.31
2018-07-12T10:02:25.448Z,101688.39
2018-07-12T10:04:54.112Z,101686.93
2018-07-12T10:07:27.824Z,101683.23
2018-07-12T10:09:57.967Z,101689.71
2018-07-12T10:12:33.110Z,101688.91
2018-07-12T10:15:06.850Z,101683.45
2018-07-12T10:17:40.809Z,101679.27
2018-07-12T10:20:09.520Z,101673.33
2018-07-12T10:22:38.140Z,101682.05
2018-07-12T10:25:07.356Z,101672.50
2018-07-12T10:27:36.024Z,101677.03
2018-07-12T10:30:04.970Z,101669.48
2018-07-12T10:32:33.716Z,101677.66
2018-07-12T10:35:02.621Z,101674.47
2018-07-12T10:37:31.298Z,101668.67
2018-07-12T10:40:00.076Z,101666.79
2018-07-12T10:42:28.843Z,101662.51
2018-07-12T10:44:57.546Z,101661.45
2018-07-12T10:47:26.340Z,101661.70
2018-07-12T10:49:55.054Z,101660.94
2018-07-12T10:52:24.093Z,101658.67
2018-07-12T10:54:52.757Z,101658.60
2018-07-12T10:57:21.365Z,101656.73
2018-07-12T10:59:49.990Z,101668.49
2018-07-12T11:02:18.608Z,101658.59
2018-07-12T11:04:47.272Z,101661.45
2018-07-12T11:07:15.971Z,101657.49
2018-07-12T11:09:44.593Z,101659.51
2018-07-12T11:12:13.341Z,101654.71
2018-07-12T11:14:41.929Z,101655.48
2018-07-12T11:17:11.059Z,101650.79
2018-07-12T11:19:39.758Z,101645.67
2018-07-12T11:22:08.468Z,101650.77
2018-07-12T11:24:37.059Z,101645.72
2018-07-12T11:27:06.021Z,101642.58
2018-07-12T11:29:45.748Z,101637.58
2018-07-12T11:32:14.655Z,101644.23
2018-07-12T11:34:43.286Z,101639.28
2018-07-12T11:37:20.194Z,101634.92
2018-07-12T11:39:48.865Z,101628.42
2018-07-12T11:42:17.503Z,101624.44
2018-07-12T11:44:46.243Z,101623.14
2018-07-12T11:47:14.939Z,101622.08
2018-07-12T11:49:43.692Z,101619.36
2018-07-12T11:52:12.387Z,101622.80
2018-07-12T11:54:40.956Z,101612.09
2018-07-12T11:57:09.850Z,101615.16
2018-07-12T11:59:38.628Z,101611.08
2018-07-12T12:02:07.253Z,101612.53
2018-07-12T12:04:35.972Z,101603.71
2018-07-12T12:07:05.376Z,101608.67
2018-07-12T12:09:33.964Z,101606.33
2018-07-12T12:12:03.009Z,101610.73
2018-07-12T12:14:31.824Z,101608.55
2018-07-12T12:17:00.511Z,101604.08
2018-07-12T12:19:29.238Z,101605.03
2018-07-12T12:21:58.073Z,101604.56
2018-07-12T12:24:26.711Z,101598.17
2018-07-12T12:26:55.361Z,101594.84
2018-07-12T12:29:24.004Z,101601.17
2018-07-12T12:31:52.641Z,101598.25
2018-07-12T12:34:21.272Z,101599.14
2018-07-12T12:36:50.023Z,101594.64
2018-07-12T12:39:18.829Z,101591.80
2018-07-12T12:41:47.620Z,101592.72
2018-07-12T12:44:16.402Z,101585.61
2018-07-12T12:46:44.987Z,101579.30
2018-07-12T12:49:13.622Z,101586.43
2018-07-12T12:51:42.306Z,101583.61
2018-07-12T12:54:10.971Z,101585.61
2018-07-12T12:56:39.632Z,101583.45
2018-07-12T12:59:08.409Z,101576.91
2018-07-12T13:01:37.008Z,101580.30
2018-07-12T13:04:05.800Z,101570.41
2018-07-12T13:06:34.455Z,101575.41
2018-07-12T13:09:04.129Z,101584.97
2018-07-12T13:11:32.815Z,101577.89
2018-07-12T13:14:01.432Z,101577.84
2018-07-12T13:16:30.124Z,101566.59
2018-07-12T13:18:58.743Z,101563.13
2018-07-12T13:21:27.400Z,101564.22
2018-07-12T13:23:56.041Z,101568.95
2018-07-12T13:26:24.629Z,101572.27
2018-07-12T13:28:53.237Z,101569.02
2018-07-12T13:31:21.914Z,101570.53
2018-07-12T13:33:50.599Z,101565.54
2018-07-12T13:36:19.304Z,101567.14
2018-07-12T13:38:48.020Z,101562.23
2018-07-12T13:41:16.724Z,101555.80
2018-07-12T13:43:45.410Z,101558.41
2018-07-12T13:46:14.029Z,101561.22
2018-07-12T13:48:42.677Z,101546.38
2018-07-12T13:51:11.613Z,101547.56
2018-07-12T13:53:40.271Z,101551.36
2018-07-12T13:56:09.014Z,101544.67
2018-07-12T13:58:37.648Z,101543.96
2018-07-12T14:01:06.761Z,101539.98
2018-07-12T14:03:35.393Z,101550.75
2018-07-12T14:06:04.108Z,101544.14
2018-07-12T14:08:32.720Z,101542.83
2018-07-12T14:11:01.368Z,101541.48
2018-07-12T14:13:29.949Z,101546.79
2018-07-12T14:15:58.792Z,101546.58
2018-07-12T14:18:27.527Z,101541.50
2018-07-12T14:20:56.144Z,101542.80
2018-07-12T14:23:24.891Z,101540.30
2018-07-12T14:25:53.684Z,101537.25
2018-07-12T14:28:22.322Z,101540.70
2018-07-12T14:30:50.982Z,101531.81
2018-07-12T14:33:19.845Z,101531.56
2018-07-12T14:35:48.479Z,101525.53
2018-07-12T14:38:17.152Z,101527.30
2018-07-12T14:40:45.776Z,101525.70
2018-07-12T14:43:14.433Z,101525.16
2018-07-12T14:45:43.352Z,101529.38
2018-07-12T14:48:12.047Z,101525.52
2018-07-12T14:50:40.621Z,101523.73
2018-07-12T14:53:09.302Z,101519.15
2018-07-12T14:55:38.183Z,101526.86
2018-07-12T14:58:06.933Z,101518.48
2018-07-12T15:00:35.761Z,101517.02
2018-07-12T15:03:04.537Z,101519.45
2018-07-12T15:05:33.294Z,101509.20
2018-07-12T15:08:01.944Z,101421.76
2018-07-12T15:10:30.605Z,101504.86
2018-07-12T15:12:59.238Z,101506.00
2018-07-12T15:15:27.881Z,101509.82
2018-07-12T15:17:56.520Z,101505.70
2018-07-12T15:20:25.219Z,101509.30
2018-07-12T15:22:53.943Z,101506.75
2018-07-12T15:25:22.616Z,101505.48
2018-07-12T15:27:51.536Z,101505.32
2018-07-12T15:30:20.207Z,101502.22
2018-07-12T15:32:48.819Z,101504.84
2018-07-12T15:35:17.492Z,101507.84
2018-07-12T15:37:46.077Z,101507.76
2018-07-12T15:40:14.687Z,101498.77
2018-07-12T15:42:43.309Z,101504.69
2018-07-12T15:45:12.137Z,101496.19
2018-07-12T15:47:40.858Z,101493.76
2018-07-12T15:50:09.779Z,101492.15
2018-07-12T15:52:38.522Z,101488.38
2018-07-12T15:55:07.636Z,101483.41
2018-07-12T15:57:36.437Z,101481.26
2018-07-12T16:00:05.601Z,101475.92
2018-07-12T16:02:34.217Z,101477.20
2018-07-12T16:05:03.377Z,101473.56
2018-07-12T16:07:32.405Z,101477.45
2018-07-12T16:10:31.550Z,101471.62
2018-07-12T16:13:00.567Z,101469.99
2018-07-12T16:15:29.473Z,101481.08
2018-07-12T16:17:58.148Z,101469.70
2018-07-12T16:20:26.858Z,101471.34
2018-07-12T16:22:55.498Z,101472.53
2018-07-12T16:25:24.119Z,101475.36
2018-07-12T16:27:53.031Z,101474.24
2018-07-12T16:30:22.191Z,101474.78
2018-07-12T16:32:51.631Z,101474.94
2018-07-12T16:35:20.876Z,101470.60
2018-07-12T16:37:49.915Z,101471.80
2018-07-12T16:40:18.704Z,101474.83
2018-07-12T16:42:47.425Z,101470.11
2018-07-12T16:45:15.997Z,101474.11
2018-07-12T16:47:44.783Z,101468.70
2018-07-12T16:50:14.110Z,101471.02
2018-07-12T16:52:43.115Z,101466.56
2018-07-12T16:55:12.115Z,101463.75
2018-07-12T16:57:41.090Z,101467.01
2018-07-12T17:00:09.992Z,101465.88
2018-07-12T17:02:38.741Z,101468.70
2018-07-12T17:05:07.409Z,101464.92
2018-07-12T17:07:36.064Z,101468.58
2018-07-12T17:10:05.404Z,101465.55
2018-07-12T17:12:34.403Z,101462.40
2018-07-12T17:15:03.194Z,101454.73
2018-07-12T17:17:32.467Z,101457.11
2018-07-12T17:20:01.096Z,101456.35
2018-07-12T17:22:29.799Z,101453.16
2018-07-12T17:24:58.682Z,101452.45
2018-07-12T17:27:27.567Z,101448.75
2018-07-12T17:29:56.328Z,101448.86
2018-07-12T17:32:25.135Z,101448.70
2018-07-12T17:34:54.274Z,101446.72
2018-07-12T17:37:23.076Z,101451.97
2018-07-12T17:39:51.701Z,101451.34
2018-07-12T17:42:26.925Z,101450.00
2018-07-12T17:44:55.578Z,101451.19
2018-07-12T17:47:24.231Z,101452.48
2018-07-12T17:49:53.006Z,101451.48
2018-07-12T17:52:21.737Z,101449.84
2018-07-12T17:54:50.289Z,101443.77
2018-07-12T17:57:19.143Z,101441.40
2018-07-12T17:59:47.767Z,101443.81
2018-07-12T18:02:16.732Z,101445.69
2018-07-12T18:04:45.369Z,101448.61
2018-07-12T18:07:14.148Z,101444.35
2018-07-12T18:09:42.759Z,101444.86
2018-07-12T18:12:11.439Z,101447.56
2018-07-12T18:14:40.075Z,101450.81
2018-07-12T18:17:08.749Z,101452.52
2018-07-12T18:19:37.531Z,101457.88
2018-07-12T18:22:06.403Z,101454.83
2018-07-12T18:24:36.578Z,101457.37
2018-07-12T18:27:06.076Z,101452.13
2018-07-12T18:29:34.734Z,101454.13
2018-07-12T18:32:03.460Z,101456.40
2018-07-12T18:34:32.176Z,101454.75
2018-07-12T18:37:00.863Z,101463.52
2018-07-12T18:39:29.496Z,101461.67
2018-07-12T18:41:58.136Z,101460.15
2018-07-12T18:44:26.906Z,101453.91
2018-07-12T18:46:55.787Z,101452.59
2018-07-12T18:49:24.463Z,101458.56
2018-07-12T18:51:53.252Z,101450.47
2018-07-12T18:54:22.027Z,101458.22
2018-07-12T18:56:50.730Z,101453.36
2018-07-12T18:59:19.433Z,101455.25
2018-07-12T19:01:48.114Z,101460.13
2018-07-12T19:04:16.738Z,101460.64
2018-07-12T19:06:45.659Z,101450.72
2018-07-12T19:09:14.273Z,101455.44
2018-07-12T19:11:42.957Z,101453.75
2018-07-12T19:14:11.749Z,101451.75
2018-07-12T19:16:40.334Z,101449.73
2018-07-12T19:19:09.044Z,101452.25
2018-07-12T19:21:37.802Z,101449.74
2018-07-12T19:24:06.466Z,101450.75
2018-07-12T19:26:35.325Z,101452.10
2018-07-12T19:29:04.086Z,101457.83
2018-07-12T19:31:32.741Z,101455.00
2018-07-12T19:34:01.420Z,101454.13
2018-07-12T19:36:30.103Z,101450.25
2018-07-12T19:38:58.796Z,101447.89
2018-07-12T19:41:27.483Z,101457.33
2018-07-12T19:43:56.214Z,101453.28
2018-07-12T19:46:24.890Z,101454.66
2018-07-12T19:48:53.570Z,101456.50
2018-07-12T19:51:22.212Z,101462.08
2018-07-12T19:53:50.843Z,101460.06
2018-07-12T19:56:19.589Z,101461.60
2018-07-12T19:58:48.357Z,101463.44
2018-07-12T20:01:17.031Z,101468.48
2018-07-12T20:03:45.708Z,101468.98
2018-07-12T20:06:14.372Z,101470.66
2018-07-12T20:08:43.267Z,101468.14
2018-07-12T20:11:12.074Z,101475.72
2018-07-12T20:13:40.701Z,101474.22
2018-07-12T20:16:09.665Z,101477.41
2018-07-12T20:18:38.357Z,101473.53
2018-07-12T20:21:07.217Z,101474.55
2018-07-12T20:23:35.989Z,101482.44
2018-07-12T20:26:04.668Z,101485.80
2018-07-12T20:28:33.368Z,101488.47
2018-07-12T20:31:02.019Z,101492.48
2018-07-12T20:33:30.663Z,101496.02
2018-07-12T20:35:59.268Z,101491.14
2018-07-12T20:38:27.870Z,101490.40
2018-07-12T20:40:56.529Z,101490.55
2018-07-12T20:43:25.226Z,101494.91
2018-07-12T20:45:53.817Z,101488.49
2018-07-12T20:48:22.661Z,101493.88
2018-07-12T20:50:52.223Z,101489.80
2018-07-12T20:53:20.920Z,101485.57
2018-07-12T20:55:49.552Z,101487.91
2018-07-12T20:58:18.264Z,101483.19
2018-07-12T21:01:01.218Z,101487.37
2018-07-12T21:03:29.845Z,101481.45
2018-07-12T21:05:58.491Z,101483.70
2018-07-12T21:08:27.144Z,101476.43
2018-07-12T21:10:55.927Z,101473.50
2018-07-12T21:13:24.578Z,101475.19
2018-07-12T21:15:53.294Z,101478.31
2018-07-12T21:18:22.205Z,101475.61
2018-07-12T21:20:50.800Z,101478.60
2018-07-12T21:23:19.472Z,101480.94
2018-07-12T21:25:48.109Z,101483.28
2018-07-12T21:28:16.711Z,101480.08
2018-07-12T21:30:45.323Z,101487.23
2018-07-12T21:33:14.198Z,101486.52
2018-07-12T21:35:42.849Z,101483.98
2018-07-12T21:38:11.510Z,101484.63
2018-07-12T21:40:40.123Z,101482.86
2018-07-12T21:43:09.061Z,101483.21
2018-07-12T21:45:37.775Z,101484.04
2018-07-12T21:48:06.442Z,101482.82
2018-07-12T21:50:35.126Z,101483.76
2018-07-12T21:53:03.884Z,101472.30
2018-07-12T21:55:32.492Z,101471.40
2018-07-12T21:58:01.329Z,101474.50
2018-07-12T22:00:31.654Z,101471.23
2018-07-12T22:03:00.467Z,101476.52
2018-07-12T22:05:29.085Z,101470.36
2018-07-12T22:08:10.890Z,101477.59
2018-07-12T22:10:39.615Z,101471.64
2018-07-12T22:13:08.492Z,101470.73
2018-07-12T22:15:37.059Z,101468.16
2018-07-12T22:18:05.643Z,101466.96
2018-07-12T22:20:34.246Z,101466.96
2018-07-12T22:23:03.148Z,101467.53
2018-07-12T22:25:32.398Z,101478.05
2018-07-12T22:28:01.125Z,101466.59
2018-07-12T22:30:30.309Z,101462.81
2018-07-12T22:32:59.942Z,101461.52
2018-07-12T22:35:28.751Z,101459.43
2018-07-12T22:37:58.291Z,101464.14
2018-07-12T22:40:27.256Z,101461.00
2018-07-12T22:42:55.913Z,101465.05
2018-07-12T22:45:24.536Z,101472.11
2018-07-12T22:47:53.249Z,101472.52
2018-07-12T22:50:21.981Z,101474.49
2018-07-12T22:52:50.682Z,101469.13
2018-07-12T22:55:19.454Z,101466.41
2018-07-12T22:57:48.103Z,101465.20
2018-07-12T23:00:16.758Z,101467.97
2018-07-12T23:02:45.454Z,101467.70
2018-07-12T23:05:14.632Z,101463.68
2018-07-12T23:07:43.237Z,101463.38
2018-07-12T23:10:11.965Z,101462.20
2018-07-12T23:12:40.653Z,101465.38
2018-07-12T23:15:09.524Z,101459.45
2018-07-12T23:17:38.146Z,101468.11
2018-07-12T23:20:06.765Z,101466.77
2018-07-12T23:22:35.426Z,101476.32
2018-07-12T23:25:04.082Z,101472.30
2018-07-12T23:27:32.792Z,101472.75
2018-07-12T23:30:01.441Z,101469.16
2018-07-12T23:32:30.110Z,101479.71
2018-07-12T23:34:58.817Z,101469.84
2018-07-12T23:37:27.418Z,101468.94
2018-07-12T23:39:56.053Z,101469.27
2018-07-12T23:42:24.772Z,101466.17
2018-07-12T23:44:53.505Z,101464.97
2018-07-12T23:47:22.121Z,101466.66
2018-07-12T23:49:50.756Z,101468.48
2018-07-12T23:52:19.453Z,101471.66
2018-07-12T23:54:48.321Z,101475.93
2018-07-12T23:57:17.180Z,101470.67
2018-07-12T23:59:45.836Z,101474.33
